Current Conditions - Area Ports

 

CYWH - Victoria Harbour, British Columbia, Canada
Distance from station: WSW 10km
Updated: 08/20/2019 9:00am
Mostly cloudy
Mostly cloudy
 Wind from SSW
Wind: SSW 7 km/h
Temperature: 14°C
Dew Point: 12°C
Humidity: 88%
Barometer: 1014.2 hPa
Clouds: Mostly cloudy
Visibility: 24 km
Cloud details: Mostly cloudy 7315 m
2019/08/20 16:00 CYWH 201600Z 21004KT 15SM BKN240 14/12 A2995 RMK CI6 SLP142
KFHR - Friday Harbor, Washington, USA
Distance from station: ENE 19km
Updated: 08/20/2019 9:53am
Clear
Clear
 Wind from ESE
Wind: ESE 6 km/h
Temperature: 16°C
Dew Point: 11°C
Humidity: 72%
Barometer: 1014.2 hPa
Clouds: Clear
Visibility: 16 km
2019/08/20 16:53 KFHR 201653Z AUTO 12003KT 10SM CLR 16/11 A2995 RMK AO2 SLP143 T01610106
 
KORS - Eastsound/Orcas, Washington, USA
Distance from station: NE 38km
Updated: 08/20/2019 9:35am
Clear
Clear
 Wind from N
Wind: N 6 km/h
Temperature: 16°C
Dew Point: 12°C
Humidity: 77%
Barometer: 1013.5 hPa
Clouds: Clear
Visibility: 16 km
2019/08/20 16:35 KORS 201635Z AUTO 36003KT 10SM CLR 16/12 A2993 RMK AO2
KNUW - Whidbey Is. Nas, Washington, USA
Distance from station: ESE 47km
Updated: 08/20/2019 8:56am
Mostly cloudy
Mostly cloudy
 Wind from NW
Wind: NW 6 km/h
Temperature: 17°C
Dew Point: 12°C
Humidity: 73%
Barometer: 1015.6 hPa
Clouds: Mostly cloudy
Visibility: 16 km
Cloud details: Partly cloudy 5486 m
Mostly cloudy 7620 m
2019/08/20 15:56 KNUW 201556Z 31003KT 10SM SCT180 BKN250 17/12 A2999 RMK AO2 SLP153 T01720117 $
 
CWEZ - Saturna Isl (map, British Columbia, Canada
Distance from station: NNE 40km
Updated: 08/20/2019 9:00am

 
Temperature: 16°C
Dew Point: 11°C
Humidity: 72%
2019/08/20 16:00 CWEZ 201600Z AUTO 16/11 RMK AO1 SLP137 T01580108 51003
CYCD - Nanaimo Airport, British Columbia, Canada
Distance from station: NW 80km
Updated: 08/20/2019 9:00am
Partly cloudy
Partly cloudy
 Wind from calm
Wind: Calm
Temperature: 18°C
Dew Point: 12°C
Humidity: 68%
Barometer: 1013.9 hPa
Clouds: Partly cloudy
Visibility: 40 km
Cloud details: Partly cloudy 7620 m
2019/08/20 16:00 CYCD 201600Z 00000KT 25SM SCT250 18/12 A2994 RMK CI3 SLP139 DENSITY ALT 400FT
 
CWVF - Sand Heads (ls), British Columbia, Canada
Distance from station: N 72km
Updated: 07/20/2019 6:00pm
NOT Current

 Wind from WSW
Wind: WSW 6 km/h
Temperature: 19°C
Dew Point: 15°C
Humidity: 78%
2019/07/21 01:00 CWVF 210100Z AUTO 24003KT 19/15 RMK AO1 T01880151
CWQK - Race Rocks Autob, British Columbia, Canada
Distance from station: SW 26km
Updated: 08/20/2019 9:00am

 Wind from E
Wind: E 6 km/h
Temperature: 15°C
Dew Point: 11°C
Humidity: 77%
2019/08/20 16:00 CWQK 201600Z AUTO 10003KT 15/11 RMK AO1 SLP142 T01480112 51004
 
CWSP - Sheringham Autob, British Columbia, Canada
Distance from station: W 49km
Updated: 08/20/2019 9:00am

 Wind from WNW
Wind: WNW 6 km/h
Temperature: 12°C
2019/08/20 16:00 CWSP 201600Z AUTO 29003KT 12/ RMK AO1 T0120